Rio Rancho, NM

2:23 PM MDT on September 28, 2016 (GMT -0600)
Baltic View | | Change Station

Elev 5653 ft 35.25 °N, 106.72 °W | Updated 13 seconds ago

Scattered Clouds
Scattered Clouds
82.9 °F
Feels Like 82.9 °F
N
9.2
Wind Variable Wind from South
Gusts 9.2 mph

Today
High -- | Low -- °F
--% Chance of Precip.
Yesterday
High -- | Low -- °F
Precip. -- in
Pressure 30.30 in
Visibility 10.0 miles
Clouds Few 13000 ft
Scattered Clouds 18000 ft
Dew Point 43.5 °F
Humidity 25%
Rainfall 0.00 in
Snow Depth Not available.
6:59 AM 6:54 PM
Waning Crescent, 4% visible
METAR KAEG 281947Z 00000KT 10SM FEW130 SCT180 26/06 A3030
Pressure 30.30 in
Visibility 10.0 miles
Clouds Few 13000 ft
Scattered Clouds 18000 ft
Dew Point 43.5 °F
Humidity 25%
Rainfall 0.00 in
Snow Depth Not available.
6:59 AM 6:54 PM
Waning Crescent, 4% visible
METAR KAEG 281947Z 00000KT 10SM FEW130 SCT180 26/06 A3030

10-Day Weather Forecast

Almanac

Astronomy

Sep. 28, 2016 Rise Set
Actual Time
Civil Twilight
Nautical Twilight
Astronomical Twilight
Moon
Length of Visible Light
Length of Day
Tomorrow will be .
, % of the Moon is Illuminated

Today's Extremes

State Highs State Lows

Community

WunderPhotos

Upload Photos

1,942,318 photos uploaded!

WunderBlog® & News

Nearby

Air Quality

  Air Quality AQ Index Pollutant
Not available.

Snow Depth

Station Depth Elevation

Earthquake Activity

City Distance Mag. Time & Date
Minimum magnitude displayed is 2.5.

Coastal Water Temperatures

Place Temperature

Stations

Nearby Weather Stations

Station Location Temp. Windchill Dew Point Humidity Wind Precip. Elev Updated Type
                   

Watches & Warnings

There are currently no watches in effect.